sensor_id;sensor_type;location;lat;lon;timestamp;pressure;altitude;pressure_sealevel;temperature;humidity
20228;BME280;12195;55.790;37.572;2024-03-06T00:01:12;100893.86;;;-3.89;60.46
20228;BME280;12195;55.790;37.572;2024-03-06T00:03:44;100899.78;;;-3.91;60.38
20228;BME280;12195;55.790;37.572;2024-03-06T00:06:17;100894.66;;;-3.91;60.42
20228;BME280;12195;55.790;37.572;2024-03-06T00:08:50;100898.02;;;-3.94;60.40
20228;BME280;12195;55.790;37.572;2024-03-06T00:11:22;100899.70;;;-3.94;60.23
20228;BME280;12195;55.790;37.572;2024-03-06T00:13:55;100898.67;;;-4.02;60.46
20228;BME280;12195;55.790;37.572;2024-03-06T00:16:27;100907.97;;;-4.07;60.49
20228;BME280;12195;55.790;37.572;2024-03-06T00:19:00;100904.48;;;-4.11;60.56
20228;BME280;12195;55.790;37.572;2024-03-06T00:21:50;100900.11;;;-4.15;60.63
20228;BME280;12195;55.790;37.572;2024-03-06T00:24:23;100898.34;;;-4.17;60.48
20228;BME280;12195;55.790;37.572;2024-03-06T00:26:56;100900.79;;;-4.22;60.47
20228;BME280;12195;55.790;37.572;2024-03-06T00:29:28;100900.70;;;-4.25;60.70
20228;BME280;12195;55.790;37.572;2024-03-06T00:32:02;100899.70;;;-4.31;60.80
20228;BME280;12195;55.790;37.572;2024-03-06T00:34:35;100906.55;;;-4.32;60.77
20228;BME280;12195;55.790;37.572;2024-03-06T00:37:08;100908.27;;;-4.31;60.57
20228;BME280;12195;55.790;37.572;2024-03-06T00:39:40;100909.91;;;-4.33;60.48
20228;BME280;12195;55.790;37.572;2024-03-06T00:42:12;100903.73;;;-4.41;60.53
20228;BME280;12195;55.790;37.572;2024-03-06T00:44:45;100907.05;;;-4.46;60.62
20228;BME280;12195;55.790;37.572;2024-03-06T00:47:18;100918.01;;;-4.52;60.79
20228;BME280;12195;55.790;37.572;2024-03-06T00:49:50;100912.80;;;-4.55;60.96
20228;BME280;12195;55.790;37.572;2024-03-06T00:52:22;100916.11;;;-4.59;61.05
20228;BME280;12195;55.790;37.572;2024-03-06T00:54:55;100916.08;;;-4.60;61.00
20228;BME280;12195;55.790;37.572;2024-03-06T00:57:28;100910.91;;;-4.62;60.98
20228;BME280;12195;55.790;37.572;2024-03-06T01:00:01;100902.25;;;-4.67;61.14
20228;BME280;12195;55.790;37.572;2024-03-06T01:02:36;100909.00;;;-4.70;61.26
20228;BME280;12195;55.790;37.572;2024-03-06T01:05:08;100902.02;;;-4.76;61.27
20228;BME280;12195;55.790;37.572;2024-03-06T01:07:41;100893.33;;;-4.82;61.41
20228;BME280;12195;55.790;37.572;2024-03-06T01:10:14;100893.19;;;-4.87;61.55
20228;BME280;12195;55.790;37.572;2024-03-06T01:12:46;100900.83;;;-4.88;61.53
20228;BME280;12195;55.790;37.572;2024-03-06T01:15:19;100893.94;;;-4.91;61.68
20228;BME280;12195;55.790;37.572;2024-03-06T01:17:52;100893.05;;;-4.93;61.75
20228;BME280;12195;55.790;37.572;2024-03-06T01:20:24;100903.29;;;-4.93;61.69
20228;BME280;12195;55.790;37.572;2024-03-06T01:22:58;100896.45;;;-4.94;61.69
20228;BME280;12195;55.790;37.572;2024-03-06T01:25:31;100904.92;;;-4.95;61.77
20228;BME280;12195;55.790;37.572;2024-03-06T01:28:04;100907.53;;;-4.93;61.67
20228;BME280;12195;55.790;37.572;2024-03-06T01:30:36;100900.69;;;-4.94;61.74
20228;BME280;12195;55.790;37.572;2024-03-06T01:33:08;100896.36;;;-4.97;61.69
20228;BME280;12195;55.790;37.572;2024-03-06T01:35:41;100892.07;;;-4.98;61.67
20228;BME280;12195;55.790;37.572;2024-03-06T01:38:13;100892.88;;;-4.99;61.78
20228;BME280;12195;55.790;37.572;2024-03-06T01:40:47;100892.83;;;-5.00;61.80
20228;BME280;12195;55.790;37.572;2024-03-06T01:43:27;100895.39;;;-5.00;61.57
20228;BME280;12195;55.790;37.572;2024-03-06T01:45:54;100891.89;;;-5.04;61.74
20228;BME280;12195;55.790;37.572;2024-03-06T01:48:29;100905.53;;;-5.05;61.75
20228;BME280;12195;55.790;37.572;2024-03-06T01:51:03;100908.88;;;-5.07;61.83
20228;BME280;12195;55.790;37.572;2024-03-06T01:53:37;100904.55;;;-5.08;61.70
20228;BME280;12195;55.790;37.572;2024-03-06T01:56:09;100908.00;;;-5.08;61.79
20228;BME280;12195;55.790;37.572;2024-03-06T01:58:45;100913.11;;;-5.08;61.71
20228;BME280;12195;55.790;37.572;2024-03-06T02:01:18;100907.11;;;-5.10;61.73
20228;BME280;12195;55.790;37.572;2024-03-06T02:03:51;100911.30;;;-5.12;61.82
20228;BME280;12195;55.790;37.572;2024-03-06T02:06:24;100916.33;;;-5.15;61.87
20228;BME280;12195;55.790;37.572;2024-03-06T02:08:57;100913.71;;;-5.18;61.93
20228;BME280;12195;55.790;37.572;2024-03-06T02:11:30;100912.73;;;-5.21;62.12
20228;BME280;12195;55.790;37.572;2024-03-06T02:14:03;100907.56;;;-5.24;62.03
20228;BME280;12195;55.790;37.572;2024-03-06T02:16:38;100909.19;;;-5.26;62.07
20228;BME280;12195;55.790;37.572;2024-03-06T02:19:12;100908.30;;;-5.28;62.14
20228;BME280;12195;55.790;37.572;2024-03-06T02:21:45;100909.14;;;-5.28;62.18
20228;BME280;12195;55.790;37.572;2024-03-06T02:24:17;100905.70;;;-5.30;62.15
20228;BME280;12195;55.790;37.572;2024-03-06T02:26:49;100909.05;;;-5.31;62.23
20228;BME280;12195;55.790;37.572;2024-03-06T02:29:26;100903.05;;;-5.33;62.12
20228;BME280;12195;55.790;37.572;2024-03-06T02:31:58;100905.65;;;-5.31;62.21
20228;BME280;12195;55.790;37.572;2024-03-06T02:34:30;100906.48;;;-5.32;62.15
20228;BME280;12195;55.790;37.572;2024-03-06T02:37:03;100914.11;;;-5.34;62.32
20228;BME280;12195;55.790;37.572;2024-03-06T02:39:35;100907.27;;;-5.35;62.13
20228;BME280;12195;55.790;37.572;2024-03-06T02:42:08;100916.58;;;-5.37;62.27
20228;BME280;12195;55.790;37.572;2024-03-06T02:44:40;100919.08;;;-5.38;62.34
20228;BME280;12195;55.790;37.572;2024-03-06T02:47:14;100917.22;;;-5.44;62.47
20228;BME280;12195;55.790;37.572;2024-03-06T02:49:46;100925.03;;;-5.39;62.32
20228;BME280;12195;55.790;37.572;2024-03-06T02:52:19;100925.82;;;-5.42;62.33
20228;BME280;12195;55.790;37.572;2024-03-06T02:54:51;100932.61;;;-5.42;62.24
20228;BME280;12195;55.790;37.572;2024-03-06T02:57:28;100935.17;;;-5.42;62.25
20228;BME280;12195;55.790;37.572;2024-03-06T03:00:03;100936.88;;;-5.43;62.36
20228;BME280;12195;55.790;37.572;2024-03-06T03:02:36;100943.73;;;-5.42;62.31
20228;BME280;12195;55.790;37.572;2024-03-06T03:05:09;100942.84;;;-5.42;62.44
20228;BME280;12195;55.790;37.572;2024-03-06T03:07:41;100948.84;;;-5.42;62.50
20228;BME280;12195;55.790;37.572;2024-03-06T03:10:15;100963.36;;;-5.41;62.15
20228;BME280;12195;55.790;37.572;2024-03-06T03:12:48;100956.56;;;-5.40;62.08
20228;BME280;12195;55.790;37.572;2024-03-06T03:15:20;100958.25;;;-5.41;61.92
20228;BME280;12195;55.790;37.572;2024-03-06T03:17:53;100965.87;;;-5.42;62.15
20228;BME280;12195;55.790;37.572;2024-03-06T03:20:25;100964.19;;;-5.42;62.19
20228;BME280;12195;55.790;37.572;2024-03-06T03:22:59;100965.92;;;-5.41;61.89
20228;BME280;12195;55.790;37.572;2024-03-06T03:25:33;100971.03;;;-5.41;61.96
20228;BME280;12195;55.790;37.572;2024-03-06T03:28:06;100966.75;;;-5.42;61.78
20228;BME280;12195;55.790;37.572;2024-03-06T03:30:43;100979.84;;;-5.31;61.54
20228;BME280;12195;55.790;37.572;2024-03-06T03:33:15;100978.81;;;-5.38;61.00
20228;BME280;12195;55.790;37.572;2024-03-06T03:35:48;100977.08;;;-5.39;61.07
20228;BME280;12195;55.790;37.572;2024-03-06T03:38:21;100985.66;;;-5.37;60.94
20228;BME280;12195;55.790;37.572;2024-03-06T03:40:53;100978.81;;;-5.38;60.78
20228;BME280;12195;55.790;37.572;2024-03-06T03:43:26;100982.99;;;-5.40;60.86
20228;BME280;12195;55.790;37.572;2024-03-06T03:45:59;100974.38;;;-5.43;60.71
20228;BME280;12195;55.790;37.572;2024-03-06T03:48:32;100978.55;;;-5.47;60.85
20228;BME280;12195;55.790;37.572;2024-03-06T03:51:06;100976.73;;;-5.49;60.88
20228;BME280;12195;55.790;37.572;2024-03-06T03:53:40;100973.38;;;-5.48;60.73
20228;BME280;12195;55.790;37.572;2024-03-06T03:56:13;100971.61;;;-5.51;60.66
20228;BME280;12195;55.790;37.572;2024-03-06T03:58:45;100964.66;;;-5.55;60.63
20228;BME280;12195;55.790;37.572;2024-03-06T04:01:19;100971.41;;;-5.57;60.83
20228;BME280;12195;55.790;37.572;2024-03-06T04:03:51;100967.44;;;-5.47;60.48
20228;BME280;12195;55.790;37.572;2024-03-06T04:06:24;100969.63;;;-5.59;60.66
20228;BME280;12195;55.790;37.572;2024-03-06T04:08:57;100968.75;;;-5.60;60.87
20228;BME280;12195;55.790;37.572;2024-03-06T04:11:30;100965.34;;;-5.60;61.10
20228;BME280;12195;55.790;37.572;2024-03-06T04:14:04;100963.73;;;-5.57;60.83
20228;BME280;12195;55.790;37.572;2024-03-06T04:16:37;100962.91;;;-5.56;60.88
20228;BME280;12195;55.790;37.572;2024-03-06T04:19:10;100963.88;;;-5.52;60.98
20228;BME280;12195;55.790;37.572;2024-03-06T04:21:43;100968.31;;;-5.47;60.80
20228;BME280;12195;55.790;37.572;2024-03-06T04:24:16;100964.09;;;-5.45;60.90
20228;BME280;12195;55.790;37.572;2024-03-06T04:26:49;100965.09;;;-5.40;60.84
20228;BME280;12195;55.790;37.572;2024-03-06T04:29:23;100975.52;;;-5.34;60.63
20228;BME280;12195;55.790;37.572;2024-03-06T04:31:55;100974.83;;;-5.28;60.35
20228;BME280;12195;55.790;37.572;2024-03-06T04:34:27;100975.77;;;-5.25;60.34
20228;BME280;12195;55.790;37.572;2024-03-06T04:37:01;100979.37;;;-5.18;60.54
20228;BME280;12195;55.790;37.572;2024-03-06T04:39:35;100972.91;;;-5.06;60.30
20228;BME280;12195;55.790;37.572;2024-03-06T04:42:08;100972.91;;;-5.06;60.30
20228;BME280;12195;55.790;37.572;2024-03-06T04:44:45;100974.80;;;-4.99;59.91
20228;BME280;12195;55.790;37.572;2024-03-06T04:47:19;100973.31;;;-4.91;59.67
20228;BME280;12195;55.790;37.572;2024-03-06T04:49:53;100963.31;;;-4.82;59.32
20228;BME280;12195;55.790;37.572;2024-03-06T04:52:26;100966.94;;;-4.74;59.06
20228;BME280;12195;55.790;37.572;2024-03-06T04:55:03;100973.17;;;-4.64;59.04
20228;BME280;12195;55.790;37.572;2024-03-06T04:57:39;100969.16;;;-4.55;58.72
20228;BME280;12195;55.790;37.572;2024-03-06T05:00:16;100973.72;;;-4.43;58.56
20228;BME280;12195;55.790;37.572;2024-03-06T05:02:51;100973.98;;;-4.33;58.44
20228;BME280;12195;55.790;37.572;2024-03-06T05:05:42;100977.77;;;-4.19;57.99
20228;BME280;12195;55.790;37.572;2024-03-06T05:08:32;100977.69;;;-3.86;57.00
20228;BME280;12195;55.790;37.572;2024-03-06T05:11:23;100967.75;;;-3.34;58.29
20228;BME280;12195;55.790;37.572;2024-03-06T05:14:13;100967.12;;;-2.34;56.04
20228;BME280;12195;55.790;37.572;2024-03-06T05:17:05;100953.64;;;-1.63;52.29
20228;BME280;12195;55.790;37.572;2024-03-06T05:19:55;100957.75;;;-1.14;51.05
20228;BME280;12195;55.790;37.572;2024-03-06T05:22:44;100962.41;;;-0.82;48.41
20228;BME280;12195;55.790;37.572;2024-03-06T05:25:35;100954.77;;;-0.73;49.05
20228;BME280;12195;55.790;37.572;2024-03-06T05:28:25;100960.39;;;-0.26;47.53
20228;BME280;12195;55.790;37.572;2024-03-06T05:31:18;100963.36;;;0.22;46.04
20228;BME280;12195;55.790;37.572;2024-03-06T05:34:09;100957.45;;;0.43;45.07
20228;BME280;12195;55.790;37.572;2024-03-06T05:36:59;100961.81;;;0.50;43.63
20228;BME280;12195;55.790;37.572;2024-03-06T05:39:50;100966.77;;;0.18;44.02
20228;BME280;12195;55.790;37.572;2024-03-06T05:42:41;100970.14;;;0.07;44.62
20228;BME280;12195;55.790;37.572;2024-03-06T05:45:32;100964.13;;;0.09;44.24
20228;BME280;12195;55.790;37.572;2024-03-06T05:48:23;100963.38;;;0.24;44.65
20228;BME280;12195;55.790;37.572;2024-03-06T05:51:13;100968.09;;;0.97;42.52
20228;BME280;12195;55.790;37.572;2024-03-06T05:54:04;100959.61;;;1.58;41.62
20228;BME280;12195;55.790;37.572;2024-03-06T05:56:57;100964.84;;;1.89;39.83
20228;BME280;12195;55.790;37.572;2024-03-06T05:59:46;100970.00;;;2.18;39.98
20228;BME280;12195;55.790;37.572;2024-03-06T06:02:20;100965.59;;;2.71;38.62
20228;BME280;12195;55.790;37.572;2024-03-06T06:04:53;100955.91;;;3.15;38.29
20228;BME280;12195;55.790;37.572;2024-03-06T06:07:28;100957.30;;;3.67;36.24
20228;BME280;12195;55.790;37.572;2024-03-06T06:10:00;100964.09;;;3.90;35.41
20228;BME280;12195;55.790;37.572;2024-03-06T06:12:33;100955.42;;;3.90;34.49
20228;BME280;12195;55.790;37.572;2024-03-06T06:15:08;100953.73;;;3.83;34.60
20228;BME280;12195;55.790;37.572;2024-03-06T06:17:41;100959.78;;;3.88;34.43
20228;BME280;12195;55.790;37.572;2024-03-06T06:20:17;100953.70;;;3.89;34.74
20228;BME280;12195;55.790;37.572;2024-03-06T06:22:52;100957.37;;;3.61;34.20
20228;BME280;12195;55.790;37.572;2024-03-06T06:25:26;100958.45;;;3.27;34.86
20228;BME280;12195;55.790;37.572;2024-03-06T06:28:00;100963.80;;;2.88;35.50
20228;BME280;12195;55.790;37.572;2024-03-06T06:30:34;100955.25;;;2.56;36.13
20228;BME280;12195;55.790;37.572;2024-03-06T06:33:07;100963.97;;;2.28;37.43
20228;BME280;12195;55.790;37.572;2024-03-06T06:35:58;100969.16;;;2.02;37.66
20228;BME280;12195;55.790;37.572;2024-03-06T06:38:32;100963.11;;;1.84;37.94
20228;BME280;12195;55.790;37.572;2024-03-06T06:41:06;100968.27;;;1.64;38.46
20228;BME280;12195;55.790;37.572;2024-03-06T06:43:40;100970.82;;;1.48;38.40
20228;BME280;12195;55.790;37.572;2024-03-06T06:46:15;100971.64;;;1.32;38.77
20228;BME280;12195;55.790;37.572;2024-03-06T06:48:53;100970.73;;;1.21;38.81
20228;BME280;12195;55.790;37.572;2024-03-06T06:51:29;100982.80;;;1.16;39.43
20228;BME280;12195;55.790;37.572;2024-03-06T06:54:02;100975.89;;;1.13;38.69
20228;BME280;12195;55.790;37.572;2024-03-06T06:56:37;100975.88;;;1.12;38.96
20228;BME280;12195;55.790;37.572;2024-03-06T06:59:11;100973.30;;;1.12;39.11
20228;BME280;12195;55.790;37.572;2024-03-06T07:01:44;100979.37;;;1.15;38.91
20228;BME280;12195;55.790;37.572;2024-03-06T07:04:18;100980.27;;;1.37;41.16
20228;BME280;12195;55.790;37.572;2024-03-06T07:06:56;100988.00;;;1.26;38.96
20228;BME280;12195;55.790;37.572;2024-03-06T07:09:29;100975.95;;;1.28;39.06
20228;BME280;12195;55.790;37.572;2024-03-06T07:12:02;100977.69;;;1.32;38.18
20228;BME280;12195;55.790;37.572;2024-03-06T07:14:37;100975.09;;;1.35;38.20
20228;BME280;12195;55.790;37.572;2024-03-06T07:17:11;100972.54;;;1.43;38.63
20228;BME280;12195;55.790;37.572;2024-03-06T07:19:44;100980.31;;;1.52;39.07
20228;BME280;12195;55.790;37.572;2024-03-06T07:22:17;100985.48;;;1.58;39.13
20228;BME280;12195;55.790;37.572;2024-03-06T07:24:51;100983.77;;;1.55;38.81
20228;BME280;12195;55.790;37.572;2024-03-06T07:27:25;100982.91;;;1.58;38.89
20228;BME280;12195;55.790;37.572;2024-03-06T07:29:59;100986.39;;;1.63;38.87
20228;BME280;12195;55.790;37.572;2024-03-06T07:32:33;100978.66;;;1.87;40.67
20228;BME280;12195;55.790;37.572;2024-03-06T07:35:06;100981.20;;;1.78;38.39
20228;BME280;12195;55.790;37.572;2024-03-06T07:37:40;100976.91;;;1.78;38.56
20228;BME280;12195;55.790;37.572;2024-03-06T07:40:15;100993.29;;;1.80;37.96
20228;BME280;12195;55.790;37.572;2024-03-06T07:42:49;100993.30;;;1.76;38.70
20228;BME280;12195;55.790;37.572;2024-03-06T07:45:23;100998.47;;;1.73;38.18
20228;BME280;12195;55.790;37.572;2024-03-06T07:47:56;100993.30;;;1.67;37.66
20228;BME280;12195;55.790;37.572;2024-03-06T07:50:30;100997.58;;;1.62;38.47
20228;BME280;12195;55.790;37.572;2024-03-06T07:53:03;100995.88;;;1.64;37.96
20228;BME280;12195;55.790;37.572;2024-03-06T07:55:36;100994.98;;;1.62;38.85
20228;BME280;12195;55.790;37.572;2024-03-06T07:58:11;101000.19;;;1.66;38.48
20228;BME280;12195;55.790;37.572;2024-03-06T08:00:46;100996.74;;;1.78;38.28
20228;BME280;12195;55.790;37.572;2024-03-06T08:03:22;101006.27;;;1.97;38.25
20228;BME280;12195;55.790;37.572;2024-03-06T08:05:56;100994.20;;;2.09;37.71
20228;BME280;12195;55.790;37.572;2024-03-06T08:08:30;100995.91;;;2.30;38.04
20228;BME280;12195;55.790;37.572;2024-03-06T08:11:04;101009.72;;;2.39;36.25
20228;BME280;12195;55.790;37.572;2024-03-06T08:13:37;101001.05;;;2.48;35.44
20228;BME280;12195;55.790;37.572;2024-03-06T08:16:11;101005.35;;;2.70;37.80
20228;BME280;12195;55.790;37.572;2024-03-06T08:18:46;101001.91;;;2.62;35.19
20228;BME280;12195;55.790;37.572;2024-03-06T08:21:19;101000.16;;;2.62;35.43
20228;BME280;12195;55.790;37.572;2024-03-06T08:23:52;101012.25;;;2.71;35.81
20228;BME280;12195;55.790;37.572;2024-03-06T08:26:26;101005.35;;;2.70;34.77
20228;BME280;12195;55.790;37.572;2024-03-06T08:28:59;100994.95;;;2.76;35.32
20228;BME280;12195;55.790;37.572;2024-03-06T08:31:33;100994.04;;;2.90;34.94
20228;BME280;12195;55.790;37.572;2024-03-06T08:34:08;100994.00;;;3.08;35.07
20228;BME280;12195;55.790;37.572;2024-03-06T08:36:43;100996.50;;;3.22;33.89
20228;BME280;12195;55.790;37.572;2024-03-06T08:39:16;100993.89;;;3.31;33.60
20228;BME280;12195;55.790;37.572;2024-03-06T08:41:50;100991.30;;;3.29;32.82
20228;BME280;12195;55.790;37.572;2024-03-06T08:44:25;100987.84;;;3.26;33.24
20228;BME280;12195;55.790;37.572;2024-03-06T08:47:01;100985.28;;;3.23;33.35
20228;BME280;12195;55.790;37.572;2024-03-06T08:49:34;100991.31;;;3.22;33.54
20228;BME280;12195;55.790;37.572;2024-03-06T08:52:09;100987.84;;;3.26;32.79
20228;BME280;12195;55.790;37.572;2024-03-06T08:54:45;100982.63;;;3.35;33.46
20228;BME280;12195;55.790;37.572;2024-03-06T08:57:19;100986.88;;;3.45;32.97
20228;BME280;12195;55.790;37.572;2024-03-06T08:59:58;100980.79;;;3.55;32.64
20228;BME280;12195;55.790;37.572;2024-03-06T09:02:32;100984.21;;;3.60;32.15
20228;BME280;12195;55.790;37.572;2024-03-06T09:05:08;100977.26;;;3.62;32.31
20228;BME280;12195;55.790;37.572;2024-03-06T09:07:44;100981.61;;;3.60;32.59
20228;BME280;12195;55.790;37.572;2024-03-06T09:10:19;100975.52;;;3.65;32.04
20228;BME280;12195;55.790;37.572;2024-03-06T09:12:53;100975.45;;;3.76;31.85
20228;BME280;12195;55.790;37.572;2024-03-06T09:15:25;100974.48;;;3.90;31.93
20228;BME280;12195;55.790;37.572;2024-03-06T09:18:00;100981.31;;;4.00;31.42
20228;BME280;12195;55.790;37.572;2024-03-06T09:20:35;100967.39;;;4.09;30.48
20228;BME280;12195;55.790;37.572;2024-03-06T09:23:10;100965.63;;;4.11;30.54
20228;BME280;12195;55.790;37.572;2024-03-06T09:25:43;100964.73;;;4.15;30.87
20228;BME280;12195;55.790;37.572;2024-03-06T09:28:17;100962.92;;;4.24;31.22
20228;BME280;12195;55.790;37.572;2024-03-06T09:30:50;100954.98;;;4.41;30.40
20228;BME280;12195;55.790;37.572;2024-03-06T09:33:23;100953.11;;;4.52;30.32
20228;BME280;12195;55.790;37.572;2024-03-06T09:35:57;100954.70;;;4.65;30.08
20228;BME280;12195;55.790;37.572;2024-03-06T09:38:30;100952.03;;;4.72;29.54
20228;BME280;12195;55.790;37.572;2024-03-06T09:41:04;100953.44;;;5.00;32.13
20228;BME280;12195;55.790;37.572;2024-03-06T09:43:38;100956.34;;;4.75;29.34
20228;BME280;12195;55.790;37.572;2024-03-06T09:46:13;100952.94;;;4.70;30.10
20228;BME280;12195;55.790;37.572;2024-03-06T09:48:48;100946.87;;;4.68;30.33
20228;BME280;12195;55.790;37.572;2024-03-06T09:51:23;100958.96;;;4.72;29.69
20228;BME280;12195;55.790;37.572;2024-03-06T09:53:58;100948.50;;;4.78;29.95
20228;BME280;12195;55.790;37.572;2024-03-06T09:56:32;100951.92;;;4.81;29.19
20228;BME280;12195;55.790;37.572;2024-03-06T09:59:05;100948.42;;;4.84;29.27
20228;BME280;12195;55.790;37.572;2024-03-06T10:01:49;100951.92;;;4.81;29.70
20228;BME280;12195;55.790;37.572;2024-03-06T10:07:00;100947.48;;;4.89;29.83
20228;BME280;12195;55.790;37.572;2024-03-06T10:09:33;100947.31;;;5.04;30.17
20228;BME280;12195;55.790;37.572;2024-03-06T10:12:06;100948.86;;;5.19;29.39
20228;BME280;12195;55.790;37.572;2024-03-06T10:14:48;100940.89;;;5.31;28.86
20228;BME280;12195;55.790;37.572;2024-03-06T10:17:20;100940.73;;;5.41;29.15
20228;BME280;12195;55.790;37.572;2024-03-06T10:20:00;100935.45;;;5.46;28.45
20228;BME280;12195;55.790;37.572;2024-03-06T10:22:34;100939.83;;;5.44;28.66
20228;BME280;12195;55.790;37.572;2024-03-06T10:25:07;100936.03;;;5.64;31.62
20228;BME280;12195;55.790;37.572;2024-03-06T10:27:41;100936.50;;;5.33;28.46
20228;BME280;12195;55.790;37.572;2024-03-06T10:30:14;100927.88;;;5.29;28.87
20228;BME280;12195;55.790;37.572;2024-03-06T10:32:47;100930.57;;;5.22;29.10
20228;BME280;12195;55.790;37.572;2024-03-06T10:35:21;100926.25;;;5.21;28.96
20228;BME280;12195;55.790;37.572;2024-03-06T10:37:55;100924.52;;;5.21;28.71
20228;BME280;12195;55.790;37.572;2024-03-06T10:40:35;100926.19;;;5.27;28.88
20228;BME280;12195;55.790;37.572;2024-03-06T10:43:06;100925.16;;;5.37;29.05
20228;BME280;12195;55.790;37.572;2024-03-06T10:45:49;100924.22;;;5.42;28.36
20228;BME280;12195;55.790;37.572;2024-03-06T10:48:24;100926.34;;;5.74;31.28
20228;BME280;12195;55.790;37.572;2024-03-06T10:51:00;100923.12;;;5.58;28.52
20228;BME280;12195;55.790;37.572;2024-03-06T10:53:35;100917.05;;;5.56;28.44
20228;BME280;12195;55.790;37.572;2024-03-06T10:56:09;100916.10;;;5.62;28.73
20228;BME280;12195;55.790;37.572;2024-03-06T10:58:42;100920.41;;;5.64;28.14
20228;BME280;12195;55.790;37.572;2024-03-06T11:01:17;100916.95;;;5.64;28.14
20228;BME280;12195;55.790;37.572;2024-03-06T11:03:53;100909.14;;;5.64;28.01
20228;BME280;12195;55.790;37.572;2024-03-06T11:06:31;100906.41;;;5.71;27.81
20228;BME280;12195;55.790;37.572;2024-03-06T11:09:08;100907.98;;;5.83;27.96
20228;BME280;12195;55.790;37.572;2024-03-06T11:11:49;100906.95;;;5.93;27.15
20228;BME280;12195;55.790;37.572;2024-03-06T11:14:24;100908.63;;;5.97;27.78
20228;BME280;12195;55.790;37.572;2024-03-06T11:17:05;100897.48;;;5.88;27.06
20228;BME280;12195;55.790;37.572;2024-03-06T11:28:34;100896.81;;;5.17;28.51
20228;BME280;12195;55.790;37.572;2024-03-06T11:31:10;100895.44;;;4.91;29.05
20228;BME280;12195;55.790;37.572;2024-03-06T11:33:52;100888.81;;;4.66;29.47
20228;BME280;12195;55.790;37.572;2024-03-06T11:36:28;100891.67;;;4.45;29.13
20228;BME280;12195;55.790;37.572;2024-03-06T11:39:07;100884.92;;;4.27;30.24
20228;BME280;12195;55.790;37.572;2024-03-06T11:41:50;100894.55;;;4.16;28.34
20228;BME280;12195;55.790;37.572;2024-03-06T11:44:27;100887.73;;;4.06;28.33
20228;BME280;12195;55.790;37.572;2024-03-06T11:47:02;100884.39;;;3.92;28.02
20228;BME280;12195;55.790;37.572;2024-03-06T11:49:36;100881.87;;;3.85;28.90
20228;BME280;12195;55.790;37.572;2024-03-06T11:52:10;100881.88;;;3.82;29.03
20228;BME280;12195;55.790;37.572;2024-03-06T11:54:44;100879.30;;;3.80;29.40
20228;BME280;12195;55.790;37.572;2024-03-06T11:57:19;100867.17;;;3.82;29.26
20228;BME280;12195;55.790;37.572;2024-03-06T11:59:54;100867.12;;;3.85;29.21
20228;BME280;12195;55.790;37.572;2024-03-06T12:02:28;100867.91;;;3.95;28.75
20228;BME280;12195;55.790;37.572;2024-03-06T12:05:03;100859.11;;;4.08;28.62
20228;BME280;12195;55.790;37.572;2024-03-06T12:07:51;100860.67;;;4.24;28.66
20228;BME280;12195;55.790;37.572;2024-03-06T12:10:24;100860.61;;;4.31;28.63
20228;BME280;12195;55.790;37.572;2024-03-06T12:12:58;100856.99;;;4.44;28.99
20228;BME280;12195;55.790;37.572;2024-03-06T12:15:33;100859.44;;;4.58;28.43
20228;BME280;12195;55.790;37.572;2024-03-06T12:18:08;100850.61;;;4.69;27.95
20228;BME280;12195;55.790;37.572;2024-03-06T12:20:43;100853.01;;;4.86;28.44
20228;BME280;12195;55.790;37.572;2024-03-06T12:23:25;100848.41;;;5.04;27.67
20228;BME280;12195;55.790;37.572;2024-03-06T12:26:06;100834.98;;;5.30;27.48
20228;BME280;12195;55.790;37.572;2024-03-06T12:28:43;100824.84;;;5.68;27.28
20228;BME280;12195;55.790;37.572;2024-03-06T12:31:16;100833.63;;;6.11;27.06
20228;BME280;12195;55.790;37.572;2024-03-06T12:33:58;100830.31;;;6.47;26.42
20228;BME280;12195;55.790;37.572;2024-03-06T12:36:37;100829.64;;;6.79;25.49
20228;BME280;12195;55.790;37.572;2024-03-06T12:39:14;100821.49;;;6.94;24.78
20228;BME280;12195;55.790;37.572;2024-03-06T12:41:45;100838.27;;;7.22;27.55
20228;BME280;12195;55.790;37.572;2024-03-06T12:44:23;100830.95;;;6.99;25.10
20228;BME280;12195;55.790;37.572;2024-03-06T12:46:57;100835.48;;;6.91;25.28
20228;BME280;12195;55.790;37.572;2024-03-06T12:49:31;100826.86;;;6.86;25.42
20228;BME280;12195;55.790;37.572;2024-03-06T12:52:04;100827.19;;;7.11;27.66
20228;BME280;12195;55.790;37.572;2024-03-06T12:54:38;100825.03;;;6.91;24.69
20228;BME280;12195;55.790;37.572;2024-03-06T12:57:11;100816.96;;;7.02;25.14
20228;BME280;12195;55.790;37.572;2024-03-06T12:59:44;100815.03;;;7.10;25.39
20228;BME280;12195;55.790;37.572;2024-03-06T13:02:19;100820.81;;;7.22;25.10
20228;BME280;12195;55.790;37.572;2024-03-06T13:04:59;100814.88;;;7.16;24.32
20228;BME280;12195;55.790;37.572;2024-03-06T13:07:32;100814.44;;;6.97;23.98
20228;BME280;12195;55.790;37.572;2024-03-06T13:10:05;100812.33;;;6.75;23.98
20228;BME280;12195;55.790;37.572;2024-03-06T13:12:40;100816.30;;;6.53;24.59
20228;BME280;12195;55.790;37.572;2024-03-06T13:15:15;100814.91;;;6.35;25.36
20228;BME280;12195;55.790;37.572;2024-03-06T13:17:48;100810.00;;;6.19;25.24
20228;BME280;12195;55.790;37.572;2024-03-06T13:20:21;100825.37;;;6.34;27.23
20228;BME280;12195;55.790;37.572;2024-03-06T13:22:59;100813.40;;;5.75;25.22
20228;BME280;12195;55.790;37.572;2024-03-06T13:25:33;100813.95;;;5.43;25.82
20228;BME280;12195;55.790;37.572;2024-03-06T13:28:06;100810.78;;;5.25;25.64
20228;BME280;12195;55.790;37.572;2024-03-06T13:30:40;100810.96;;;5.13;25.19
20228;BME280;12195;55.790;37.572;2024-03-06T13:33:13;100813.60;;;5.10;24.98
20228;BME280;12195;55.790;37.572;2024-03-06T13:35:47;100810.14;;;5.11;25.08
20228;BME280;12195;55.790;37.572;2024-03-06T13:38:37;100801.68;;;5.50;25.01